createdAt,value
2022-08-21T00:00:44.024Z,28.31
2022-08-21T00:03:13.160Z,28.30
2022-08-21T00:05:43.717Z,28.31
2022-08-21T00:08:12.469Z,28.29
2022-08-21T00:10:41.538Z,28.29
2022-08-21T00:13:09.807Z,28.29
2022-08-21T00:15:38.935Z,28.27
2022-08-21T00:18:09.529Z,28.26
2022-08-21T00:20:37.877Z,28.24
2022-08-21T00:23:06.311Z,28.25
2022-08-21T00:25:34.974Z,28.25
2022-08-21T00:28:03.994Z,28.24
2022-08-21T00:30:32.457Z,28.22
2022-08-21T00:33:00.983Z,28.21
2022-08-21T00:35:31.973Z,28.19
2022-08-21T00:38:00.338Z,28.19
2022-08-21T00:40:35.986Z,28.20
2022-08-21T00:43:05.712Z,28.21
2022-08-21T00:45:34.319Z,28.21
2022-08-21T00:48:03.094Z,28.21
2022-08-21T00:50:34.866Z,28.21
2022-08-21T00:53:04.056Z,28.21
2022-08-21T00:55:33.017Z,28.18
2022-08-21T00:58:02.797Z,28.18
2022-08-21T01:00:32.218Z,28.18
2022-08-21T01:03:01.069Z,28.17
2022-08-21T01:05:29.638Z,28.16
2022-08-21T01:07:59.398Z,28.16
2022-08-21T01:10:28.184Z,28.14
2022-08-21T01:12:58.471Z,28.13
2022-08-21T01:15:29.710Z,28.15
2022-08-21T01:17:58.137Z,28.13
2022-08-21T01:20:32.629Z,28.13
2022-08-21T01:23:03.317Z,28.11
2022-08-21T01:25:31.811Z,28.12
2022-08-21T01:28:01.405Z,28.12
2022-08-21T01:30:30.330Z,28.11
2022-08-21T01:32:59.194Z,28.11
2022-08-21T01:35:27.853Z,28.10
2022-08-21T01:37:56.187Z,28.09
2022-08-21T01:40:25.964Z,28.07
2022-08-21T01:42:54.539Z,28.06
2022-08-21T01:45:23.057Z,28.03
2022-08-21T01:47:51.334Z,28.03
2022-08-21T01:50:20.708Z,28.02
2022-08-21T01:52:49.282Z,28.00
2022-08-21T01:55:19.013Z,27.98
2022-08-21T01:57:48.984Z,27.96
2022-08-21T02:00:20.455Z,27.96
2022-08-21T02:02:48.761Z,27.96
2022-08-21T02:05:17.144Z,27.95
2022-08-21T02:07:47.439Z,27.94
2022-08-21T02:10:17.112Z,27.94
2022-08-21T02:12:45.417Z,27.93
2022-08-21T02:15:35.293Z,27.94
2022-08-21T02:18:04.764Z,27.94
2022-08-21T02:20:33.896Z,27.95
2022-08-21T02:23:02.775Z,27.93
2022-08-21T02:25:31.483Z,27.91
2022-08-21T02:28:00.443Z,27.89
2022-08-21T02:30:29.837Z,27.89
2022-08-21T02:33:00.519Z,27.89
2022-08-21T02:35:29.299Z,27.88
2022-08-21T02:37:59.803Z,27.87
2022-08-21T02:40:29.608Z,27.86
2022-08-21T02:42:58.049Z,27.83
2022-08-21T02:45:26.557Z,27.82
2022-08-21T02:47:56.443Z,27.82
2022-08-21T02:50:27.539Z,27.81
2022-08-21T02:52:56.960Z,27.79
2022-08-21T02:55:27.009Z,27.79
2022-08-21T02:57:55.486Z,27.80
2022-08-21T03:00:24.169Z,27.79
2022-08-21T03:02:53.000Z,27.80
2022-08-21T03:05:21.633Z,27.81
2022-08-21T03:07:53.019Z,27.82
2022-08-21T03:10:21.850Z,27.82
2022-08-21T03:12:50.271Z,27.81
2022-08-21T03:15:20.383Z,27.80
2022-08-21T03:17:49.222Z,27.80
2022-08-21T03:20:18.714Z,27.79
2022-08-21T03:22:52.936Z,27.77
2022-08-21T03:25:39.555Z,27.75
2022-08-21T03:28:09.385Z,27.76
2022-08-21T03:30:41.487Z,27.74
2022-08-21T03:33:12.285Z,27.73
2022-08-21T03:35:43.893Z,27.72
2022-08-21T03:38:13.875Z,27.73
2022-08-21T03:40:43.776Z,27.74
2022-08-21T03:43:12.116Z,27.75
2022-08-21T03:45:40.947Z,27.73
2022-08-21T03:48:10.242Z,27.73
2022-08-21T03:50:41.370Z,27.71
2022-08-21T03:53:17.422Z,27.72
2022-08-21T03:55:49.007Z,27.72
2022-08-21T03:58:18.153Z,27.71
2022-08-21T04:00:47.555Z,27.71
2022-08-21T04:03:15.980Z,27.69
2022-08-21T04:05:46.353Z,27.70
2022-08-21T04:08:15.481Z,27.71
2022-08-21T04:10:45.244Z,27.72
2022-08-21T04:13:15.753Z,27.71
2022-08-21T04:15:44.550Z,27.71
2022-08-21T04:18:12.991Z,27.72
2022-08-21T04:20:41.798Z,27.72
2022-08-21T04:23:13.683Z,27.72
2022-08-21T04:25:52.534Z,27.72
2022-08-21T04:28:23.354Z,27.73
2022-08-21T04:30:53.049Z,27.76
2022-08-21T04:33:22.137Z,27.76
2022-08-21T04:35:50.658Z,27.75
2022-08-21T04:38:19.346Z,27.75
2022-08-21T04:40:47.868Z,27.76
2022-08-21T04:43:16.242Z,27.77
2022-08-21T04:45:48.480Z,27.78
2022-08-21T04:48:18.881Z,27.77
2022-08-21T04:50:52.608Z,27.76
2022-08-21T04:53:23.292Z,27.77
2022-08-21T04:55:52.216Z,27.78
2022-08-21T04:58:22.626Z,27.78
2022-08-21T05:00:54.288Z,27.78
2022-08-21T05:03:22.759Z,27.78
2022-08-21T05:05:51.096Z,27.78
2022-08-21T05:08:21.668Z,27.78
2022-08-21T05:10:50.206Z,27.80
2022-08-21T05:13:18.668Z,27.81
2022-08-21T05:15:47.136Z,27.81
2022-08-21T05:18:17.123Z,27.84
2022-08-21T05:20:46.799Z,27.84
2022-08-21T05:23:15.592Z,27.85
2022-08-21T05:25:44.652Z,27.86
2022-08-21T05:28:14.548Z,27.86
2022-08-21T05:30:42.961Z,27.87
2022-08-21T05:33:11.328Z,27.88
2022-08-21T05:35:41.083Z,27.88
2022-08-21T05:38:14.900Z,27.90
2022-08-21T05:40:46.340Z,27.91
2022-08-21T05:43:14.522Z,27.93
2022-08-21T05:45:44.397Z,27.93
2022-08-21T05:48:14.011Z,27.94
2022-08-21T05:50:43.983Z,27.95
2022-08-21T05:53:12.889Z,27.96
2022-08-21T05:55:45.763Z,27.96
2022-08-21T05:58:15.707Z,27.97
2022-08-21T06:00:44.476Z,27.98
2022-08-21T06:03:13.239Z,27.98
2022-08-21T06:05:41.715Z,27.99
2022-08-21T06:08:11.351Z,27.99
2022-08-21T06:10:39.962Z,28.01
2022-08-21T06:13:08.281Z,28.02
2022-08-21T06:15:36.605Z,28.03
2022-08-21T06:18:05.786Z,28.03
2022-08-21T06:20:34.196Z,28.04
2022-08-21T06:23:02.879Z,28.06
2022-08-21T06:25:32.905Z,28.07
2022-08-21T06:28:05.133Z,28.09
2022-08-21T06:30:33.817Z,28.10
2022-08-21T06:33:02.722Z,28.11
2022-08-21T06:35:31.059Z,28.13
2022-08-21T06:37:59.538Z,28.15
2022-08-21T06:40:29.980Z,28.15
2022-08-21T06:43:01.343Z,28.16
2022-08-21T06:45:32.328Z,28.17
2022-08-21T06:48:01.063Z,28.18
2022-08-21T06:50:29.538Z,28.21
2022-08-21T06:53:03.696Z,28.21
2022-08-21T06:55:32.136Z,28.22
2022-08-21T06:58:02.243Z,28.22
2022-08-21T07:00:30.822Z,28.23
2022-08-21T07:02:59.236Z,28.24
2022-08-21T07:05:28.891Z,28.27
2022-08-21T07:07:58.083Z,28.26
2022-08-21T07:10:26.524Z,28.28
2022-08-21T07:13:00.425Z,28.28
2022-08-21T07:15:32.062Z,28.29
2022-08-21T07:18:00.904Z,28.30
2022-08-21T07:20:30.052Z,28.31
2022-08-21T07:22:58.874Z,28.32
2022-08-21T07:25:27.398Z,28.32
2022-08-21T07:27:56.202Z,28.33
2022-08-21T07:30:24.978Z,28.33
2022-08-21T07:32:54.967Z,28.34
2022-08-21T07:35:23.850Z,28.36
2022-08-21T07:37:52.290Z,28.36
2022-08-21T07:40:20.817Z,28.37
2022-08-21T07:42:51.227Z,28.36
2022-08-21T07:45:20.436Z,28.37
2022-08-21T07:47:48.775Z,28.38
2022-08-21T07:50:18.556Z,28.37
2022-08-21T07:52:46.934Z,28.39
2022-08-21T07:55:17.143Z,28.40
2022-08-21T07:57:45.561Z,28.41
2022-08-21T08:00:16.046Z,28.41
2022-08-21T08:02:51.636Z,28.41
2022-08-21T08:05:22.611Z,28.41
2022-08-21T08:07:50.991Z,28.41
2022-08-21T08:10:19.704Z,28.42
2022-08-21T08:12:48.550Z,28.44
2022-08-21T08:15:18.005Z,28.44
2022-08-21T08:17:46.319Z,28.45
2022-08-21T08:20:16.588Z,28.47
2022-08-21T08:22:50.162Z,28.48
2022-08-21T08:25:19.414Z,28.49
2022-08-21T08:27:48.145Z,28.50
2022-08-21T08:30:17.453Z,28.51
2022-08-21T08:32:46.070Z,28.55
2022-08-21T08:35:14.306Z,28.55
2022-08-21T08:37:43.904Z,28.57
2022-08-21T08:40:20.554Z,28.57
2022-08-21T08:42:51.468Z,28.58
2022-08-21T08:45:23.119Z,28.59
2022-08-21T08:47:56.494Z,28.60
2022-08-21T08:50:27.698Z,28.60
2022-08-21T08:53:00.575Z,28.61
2022-08-21T08:55:34.340Z,28.61
2022-08-21T08:58:03.689Z,28.63
2022-08-21T09:00:33.069Z,28.63
2022-08-21T09:03:02.591Z,28.64
2022-08-21T09:05:32.477Z,28.64
2022-08-21T09:08:09.377Z,28.65
2022-08-21T09:10:46.889Z,28.65
2022-08-21T09:13:20.694Z,28.66
2022-08-21T09:15:53.999Z,28.66
2022-08-21T09:18:29.395Z,28.67
2022-08-21T09:21:04.295Z,28.66
2022-08-21T09:23:38.521Z,28.67
2022-08-21T09:26:14.163Z,28.69
2022-08-21T09:28:43.700Z,28.70
2022-08-21T09:31:18.377Z,28.70
2022-08-21T09:33:46.667Z,28.72
2022-08-21T09:36:25.603Z,28.71
2022-08-21T09:38:55.143Z,28.71
2022-08-21T09:41:29.780Z,28.73
2022-08-21T09:43:58.027Z,28.74
2022-08-21T09:46:27.219Z,28.74
2022-08-21T09:48:57.278Z,28.75
2022-08-21T09:51:27.449Z,28.76
2022-08-21T09:53:57.272Z,28.76
2022-08-21T09:56:49.525Z,28.77
2022-08-21T09:59:19.505Z,28.75
2022-08-21T10:01:49.579Z,28.73
2022-08-21T10:04:21.814Z,28.71
2022-08-21T10:06:50.152Z,28.69
2022-08-21T10:09:22.025Z,28.66
2022-08-21T10:11:58.726Z,28.66
2022-08-21T10:14:37.121Z,28.64
2022-08-21T10:17:14.353Z,28.63
2022-08-21T10:19:45.976Z,28.62
2022-08-21T10:22:19.355Z,28.61
2022-08-21T10:24:53.490Z,28.61
2022-08-21T10:27:27.921Z,28.60
2022-08-21T10:29:58.549Z,28.60
2022-08-21T10:32:31.377Z,28.59
2022-08-21T10:35:04.187Z,28.59
2022-08-21T10:37:38.499Z,28.58
2022-08-21T10:40:12.185Z,28.58
2022-08-21T10:42:50.479Z,28.57
2022-08-21T10:45:26.034Z,28.56
2022-08-21T10:47:58.194Z,28.56
2022-08-21T10:50:32.275Z,28.55
2022-08-21T10:53:35.190Z,28.56
2022-08-21T10:56:04.640Z,28.56
2022-08-21T10:58:38.596Z,28.55
2022-08-21T11:01:11.596Z,28.55
2022-08-21T11:03:43.298Z,28.55
2022-08-21T11:06:13.828Z,28.54
2022-08-21T11:08:43.798Z,28.54
2022-08-21T11:11:16.101Z,28.53
2022-08-21T11:13:55.053Z,28.52
2022-08-21T11:16:25.946Z,28.52
2022-08-21T11:18:59.117Z,28.53
2022-08-21T11:21:31.815Z,28.54
2022-08-21T11:24:05.842Z,28.53
2022-08-21T11:26:38.115Z,28.52
2022-08-21T11:29:12.025Z,28.55
2022-08-21T11:31:47.344Z,28.55
2022-08-21T11:34:22.270Z,28.55
2022-08-21T11:36:54.002Z,28.56
2022-08-21T11:39:27.879Z,28.56
2022-08-21T11:41:59.048Z,28.62
2022-08-21T11:44:35.644Z,28.67
2022-08-21T11:47:08.215Z,28.65
2022-08-21T11:49:48.750Z,28.60
2022-08-21T11:52:19.392Z,28.56
2022-08-21T11:54:50.271Z,28.52
2022-08-21T11:57:22.825Z,28.49
2022-08-21T11:59:57.555Z,28.46
2022-08-21T12:02:27.060Z,28.41
2022-08-21T12:04:59.128Z,28.38
2022-08-21T12:07:33.073Z,28.35
2022-08-21T12:10:01.975Z,28.30
2022-08-21T12:12:32.226Z,28.27
2022-08-21T12:15:19.137Z,28.24
2022-08-21T12:17:54.894Z,28.22
2022-08-21T12:20:28.052Z,28.19
2022-08-21T12:23:04.207Z,28.17
2022-08-21T12:25:39.230Z,28.14
2022-08-21T12:28:11.815Z,28.13
2022-08-21T12:30:44.331Z,28.12
2022-08-21T12:33:22.432Z,28.10
2022-08-21T12:35:51.803Z,28.07
2022-08-21T12:38:21.657Z,28.04
2022-08-21T12:40:52.903Z,28.00
2022-08-21T12:43:22.502Z,27.99
2022-08-21T12:45:53.592Z,27.97
2022-08-21T12:48:24.944Z,27.94
2022-08-21T12:50:54.684Z,27.91
2022-08-21T12:53:29.315Z,27.88
2022-08-21T12:56:02.413Z,27.86
2022-08-21T12:58:31.127Z,27.84
2022-08-21T13:01:03.747Z,27.82
2022-08-21T13:03:32.621Z,27.81
2022-08-21T13:06:01.415Z,27.80
2022-08-21T13:08:30.171Z,27.79
2022-08-21T13:11:00.460Z,27.77
2022-08-21T13:13:46.814Z,27.75
2022-08-21T13:16:24.776Z,27.73
2022-08-21T13:18:55.978Z,27.72
2022-08-21T13:21:29.206Z,27.71
2022-08-21T13:24:31.743Z,27.68
2022-08-21T13:26:58.537Z,27.67
2022-08-21T13:29:31.588Z,27.65
2022-08-21T13:32:02.813Z,27.64
2022-08-21T13:34:32.858Z,27.61
2022-08-21T13:37:02.718Z,27.60
2022-08-21T13:39:31.516Z,27.59
2022-08-21T13:42:01.040Z,27.57
2022-08-21T13:44:37.120Z,27.56
2022-08-21T13:47:07.732Z,27.55
2022-08-21T13:49:37.238Z,27.53
2022-08-21T13:52:07.742Z,27.52
2022-08-21T13:54:39.266Z,27.51
2022-08-21T13:57:17.731Z,27.49
2022-08-21T13:59:46.060Z,27.49
2022-08-21T14:02:17.496Z,27.47
2022-08-21T14:04:53.286Z,27.47
2022-08-21T14:07:23.452Z,27.47
2022-08-21T14:09:51.947Z,27.44
2022-08-21T14:12:26.064Z,27.43
2022-08-21T14:14:55.699Z,27.44
2022-08-21T14:17:33.382Z,27.42
2022-08-21T14:20:02.185Z,27.42
2022-08-21T14:22:33.764Z,27.41
2022-08-21T14:25:03.485Z,27.41
2022-08-21T14:27:33.091Z,27.41
2022-08-21T14:30:02.203Z,27.40
2022-08-21T14:32:45.894Z,27.39
2022-08-21T14:35:15.054Z,27.40
2022-08-21T14:37:44.064Z,27.39
2022-08-21T14:40:14.018Z,27.39
2022-08-21T14:42:43.132Z,27.39
2022-08-21T14:45:15.426Z,27.39
2022-08-21T14:47:46.016Z,27.39
2022-08-21T14:50:14.791Z,27.40
2022-08-21T14:52:44.217Z,27.41
2022-08-21T14:55:15.217Z,27.43
2022-08-21T14:57:44.859Z,27.47
2022-08-21T15:00:13.602Z,27.49
2022-08-21T15:02:41.980Z,27.52
2022-08-21T15:05:12.134Z,27.56
2022-08-21T15:07:41.514Z,27.59
2022-08-21T15:10:10.067Z,27.61
2022-08-21T15:12:38.642Z,27.64
2022-08-21T15:15:08.376Z,27.67
2022-08-21T15:17:36.922Z,27.70
2022-08-21T15:20:06.958Z,27.73
2022-08-21T15:22:36.629Z,27.76
2022-08-21T15:25:05.647Z,27.78
2022-08-21T15:27:34.004Z,27.82
2022-08-21T15:30:02.354Z,27.84
2022-08-21T15:32:31.840Z,27.86
2022-08-21T15:35:00.345Z,27.89
2022-08-21T15:37:28.654Z,27.92
2022-08-21T15:39:58.565Z,27.95
2022-08-21T15:42:28.725Z,27.97
2022-08-21T15:44:58.056Z,28.00
2022-08-21T15:47:28.364Z,28.01
2022-08-21T15:49:56.775Z,28.05
2022-08-21T15:52:25.475Z,28.07
2022-08-21T15:54:54.265Z,28.08
2022-08-21T15:57:24.982Z,28.09
2022-08-21T15:59:54.543Z,28.09
2022-08-21T16:02:25.180Z,28.10
2022-08-21T16:04:53.488Z,28.12
2022-08-21T16:07:22.258Z,28.13
2022-08-21T16:09:50.676Z,28.14
2022-08-21T16:12:21.896Z,28.16
2022-08-21T16:14:53.349Z,28.18
2022-08-21T16:17:23.247Z,28.19
2022-08-21T16:19:51.651Z,28.22
2022-08-21T16:22:19.975Z,28.23
2022-08-21T16:24:48.281Z,28.23
2022-08-21T16:27:17.669Z,28.24
2022-08-21T16:29:47.476Z,28.25
2022-08-21T16:32:17.817Z,28.26
2022-08-21T16:34:48.647Z,28.27
2022-08-21T16:37:23.851Z,28.30
2022-08-21T16:39:53.208Z,28.32
2022-08-21T16:42:24.018Z,28.34
2022-08-21T16:44:52.335Z,28.34
2022-08-21T16:47:26.329Z,28.34
2022-08-21T16:49:55.685Z,28.36
2022-08-21T16:52:24.025Z,28.37
2022-08-21T16:54:52.268Z,28.37
2022-08-21T16:57:20.760Z,28.40
2022-08-21T16:59:49.333Z,28.39
2022-08-21T17:02:26.133Z,28.40
2022-08-21T17:04:54.433Z,28.41
2022-08-21T17:07:22.760Z,28.42
2022-08-21T17:09:51.137Z,28.42
2022-08-21T17:12:19.970Z,28.44
2022-08-21T17:14:48.552Z,28.44
2022-08-21T17:17:17.423Z,28.44
2022-08-21T17:19:47.243Z,28.45
2022-08-21T17:22:15.720Z,28.46
2022-08-21T17:24:43.943Z,28.45
2022-08-21T17:27:13.006Z,28.46
2022-08-21T17:29:42.563Z,28.46
2022-08-21T17:32:12.342Z,28.47
2022-08-21T17:34:40.910Z,28.47
2022-08-21T17:37:10.562Z,28.47
2022-08-21T17:39:39.025Z,28.48
2022-08-21T17:42:10.543Z,28.48
2022-08-21T17:44:39.314Z,28.46
2022-08-21T17:47:08.656Z,28.45
2022-08-21T17:49:37.279Z,28.44
2022-08-21T17:52:07.704Z,28.42
2022-08-21T17:54:37.994Z,28.39
2022-08-21T17:57:06.641Z,28.38
2022-08-21T17:59:35.908Z,28.36
2022-08-21T18:02:05.034Z,28.34
2022-08-21T18:04:38.185Z,28.31
2022-08-21T18:07:06.679Z,28.29
2022-08-21T18:09:35.035Z,28.29
2022-08-21T18:12:05.799Z,28.25
2022-08-21T18:14:36.473Z,28.21
2022-08-21T18:17:08.058Z,28.16
2022-08-21T18:19:36.457Z,28.13
2022-08-21T18:22:17.193Z,28.08
2022-08-21T18:24:46.212Z,28.05
2022-08-21T18:27:16.347Z,28.02
2022-08-21T18:29:47.457Z,27.99
2022-08-21T18:32:30.880Z,27.98
2022-08-21T18:35:01.917Z,27.94
2022-08-21T18:37:31.166Z,27.93
2022-08-21T18:40:00.599Z,27.90
2022-08-21T18:42:38.973Z,27.88
2022-08-21T18:45:09.661Z,27.86
2022-08-21T18:47:41.677Z,27.85
2022-08-21T18:50:11.126Z,27.82
2022-08-21T18:52:51.416Z,27.81
2022-08-21T18:55:23.096Z,27.79
2022-08-21T18:57:55.514Z,27.78
2022-08-21T19:00:25.246Z,27.77
2022-08-21T19:02:53.969Z,27.76
2022-08-21T19:05:23.321Z,27.73
2022-08-21T19:07:52.131Z,27.73
2022-08-21T19:10:27.509Z,27.72
2022-08-21T19:12:58.726Z,27.72
2022-08-21T19:15:27.295Z,27.70
2022-08-21T19:17:57.160Z,27.67
2022-08-21T19:20:26.677Z,27.67
2022-08-21T19:22:56.364Z,27.66
2022-08-21T19:25:33.774Z,27.64
2022-08-21T19:28:11.288Z,27.64
2022-08-21T19:30:40.777Z,27.62
2022-08-21T19:33:09.508Z,27.62
2022-08-21T19:35:38.285Z,27.60
2022-08-21T19:38:06.988Z,27.60
2022-08-21T19:40:38.347Z,27.61
2022-08-21T19:43:11.555Z,27.60
2022-08-21T19:45:40.185Z,27.60
2022-08-21T19:48:08.624Z,27.60
2022-08-21T19:50:37.232Z,27.58
2022-08-21T19:53:06.047Z,27.57
2022-08-21T19:55:43.609Z,27.54
2022-08-21T19:58:22.664Z,27.54
2022-08-21T20:00:51.287Z,27.52
2022-08-21T20:03:21.189Z,27.52
2022-08-21T20:05:49.693Z,27.53
2022-08-21T20:08:20.225Z,27.53
2022-08-21T20:10:49.917Z,27.53
2022-08-21T20:13:22.137Z,27.52
2022-08-21T20:15:51.091Z,27.54
2022-08-21T20:18:20.104Z,27.55
2022-08-21T20:20:55.774Z,27.56
2022-08-21T20:23:30.356Z,27.55
2022-08-21T20:25:59.119Z,27.56
2022-08-21T20:28:29.005Z,27.58
2022-08-21T20:30:57.947Z,27.57
2022-08-21T20:33:26.292Z,27.57
2022-08-21T20:35:55.531Z,27.56
2022-08-21T20:38:23.869Z,27.56
2022-08-21T20:40:54.530Z,27.57
2022-08-21T20:43:23.363Z,27.57
2022-08-21T20:45:52.966Z,27.57
2022-08-21T20:48:26.028Z,27.59
2022-08-21T20:50:56.719Z,27.58
2022-08-21T20:53:33.224Z,27.59
2022-08-21T20:56:15.636Z,27.58
2022-08-21T20:58:49.049Z,27.57
2022-08-21T21:01:19.452Z,27.58
2022-08-21T21:03:51.473Z,27.59
2022-08-21T21:06:26.297Z,27.59
2022-08-21T21:08:58.702Z,27.58
2022-08-21T21:11:31.922Z,27.58
2022-08-21T21:14:03.409Z,27.58
2022-08-21T21:16:34.918Z,27.60
2022-08-21T21:19:10.979Z,27.58
2022-08-21T21:21:42.676Z,27.58
2022-08-21T21:24:21.797Z,27.58
2022-08-21T21:26:57.738Z,27.58
2022-08-21T21:29:29.877Z,27.59
2022-08-21T21:31:59.973Z,27.58
2022-08-21T21:34:31.753Z,27.57
2022-08-21T21:37:04.333Z,27.58
2022-08-21T21:39:38.885Z,27.57
2022-08-21T21:42:12.663Z,27.55
2022-08-21T21:44:52.527Z,27.54
2022-08-21T21:47:29.050Z,27.54
2022-08-21T21:50:10.301Z,27.55
2022-08-21T21:52:58.917Z,27.53
2022-08-21T21:55:36.903Z,27.52
2022-08-21T21:58:16.971Z,27.52
2022-08-21T22:00:52.251Z,27.52
2022-08-21T22:03:25.396Z,27.51
2022-08-21T22:05:57.665Z,27.50
2022-08-21T22:08:30.991Z,27.50
2022-08-21T22:11:02.505Z,27.50
2022-08-21T22:13:45.680Z,27.50
2022-08-21T22:16:14.367Z,27.48
2022-08-21T22:18:47.247Z,27.48
2022-08-21T22:21:26.227Z,27.49
2022-08-21T22:23:57.557Z,27.50
2022-08-21T22:26:33.082Z,27.49
2022-08-21T22:32:05.111Z,27.48
2022-08-21T22:34:36.390Z,27.49
2022-08-21T22:37:09.308Z,27.48
2022-08-21T22:39:39.381Z,27.47
2022-08-21T22:45:00.040Z,27.49
2022-08-21T22:47:33.738Z,27.47
2022-08-21T22:50:06.503Z,27.46
2022-08-21T22:52:36.357Z,27.46
2022-08-21T22:55:18.220Z,27.46
2022-08-21T22:58:04.221Z,27.45
2022-08-21T23:00:38.046Z,27.44
2022-08-21T23:03:07.039Z,27.44
2022-08-21T23:05:46.444Z,27.44
2022-08-21T23:11:07.721Z,27.42
2022-08-21T23:13:41.080Z,27.42
2022-08-21T23:16:15.614Z,27.41
2022-08-21T23:18:53.741Z,27.41
2022-08-21T23:21:28.174Z,27.39
2022-08-21T23:24:05.453Z,27.39
2022-08-21T23:26:54.657Z,27.40
2022-08-21T23:29:30.921Z,27.39
2022-08-21T23:32:14.655Z,27.38
2022-08-21T23:34:46.548Z,27.38
2022-08-21T23:37:49.326Z,27.38
2022-08-21T23:40:38.934Z,27.38
2022-08-21T23:43:33.332Z,27.36
2022-08-21T23:46:08.580Z,27.37
2022-08-21T23:48:44.751Z,27.38
2022-08-21T23:51:14.111Z,27.36
2022-08-21T23:53:50.995Z,27.36
2022-08-21T23:56:24.832Z,27.35
2022-08-21T23:58:57.311Z,27.36
